Time;durP1;ratioP1;P1;durP2;ratioP2;P2;SDS_P1;SDS_P2;PMS_P1;PMS_P2;Temp;Humidity;BMP_temperature;BMP_pressure;BME280_temperature;BME280_humidity;BME280_pressure;Samples;Min_cycle;Max_cycle;Signal;HPM_P1;HPM_P2
2021/10/22 00:01:57;;;;;;;7.95;1.60;;;;;;;4.98;96.58;61483.69;5080313;28;20108;-69
2021/10/22 00:04:25;;;;;;;9.88;1.58;;;;;;;4.98;96.25;61483.13;5077137;28;20144;-69
2021/10/22 00:06:52;;;;;;;8.70;1.90;;;;;;;4.95;97.20;61479.69;5084033;28;20143;-69
2021/10/22 00:09:19;;;;;;;12.25;2.33;;;;;;;4.89;99.46;61474.22;5077702;28;20258;-68
2021/10/22 00:11:47;;;;;;;13.45;2.53;;;5.50;99.90;;;4.82;100.00;61466.91;5062831;28;20078;-68
2021/10/22 00:14:15;;;;;;;7.28;1.90;;;5.60;99.90;;;4.75;100.00;61460.06;5090400;28;20068;-69
2021/10/22 00:16:43;;;;;;;6.43;2.40;;;4.90;99.90;;;4.68;100.00;61452.59;5075372;28;20044;-68
2021/10/22 00:19:11;;;;;;;9.32;2.33;;;;;;;4.61;99.95;61446.53;5066712;28;20134;-68
2021/10/22 00:21:38;;;;;;;5.38;1.55;;;4.80;99.90;;;4.56;99.19;61441.13;5083983;28;20113;-69
2021/10/22 00:24:06;;;;;;;5.30;1.55;;;4.70;99.90;;;4.52;98.79;61436.53;5084455;28;20448;-68
2021/10/22 00:26:33;;;;;;;8.45;1.90;;;4.60;99.90;;;4.47;98.70;61432.06;5082841;28;20114;-68
2021/10/22 00:29:00;;;;;;;7.60;1.75;;;4.70;99.90;;;4.44;98.77;61429.00;5082091;28;20131;-68
2021/10/22 00:31:27;;;;;;;6.57;1.80;;;4.60;99.90;;;4.41;98.79;61426.19;5081007;28;20163;-68
2021/10/22 00:33:54;;;;;;;8.45;1.35;;;4.70;99.90;;;4.39;98.60;61423.63;5073189;28;20118;-68
2021/10/22 00:36:21;;;;;;;8.23;1.90;;;4.80;99.90;;;4.36;98.87;61420.75;5077186;28;20072;-68
2021/10/22 00:38:48;;;;;;;8.50;1.60;;;4.80;99.90;;;4.33;98.81;61416.94;5074550;28;20556;-68
2021/10/22 00:41:17;;;;;;;9.75;1.40;;;4.70;99.90;;;4.29;99.94;61413.00;5078420;28;20051;-69
2021/10/22 00:43:46;;;;;;;9.85;1.48;;;4.70;99.90;;;4.26;99.64;61410.47;5050349;28;20048;-67
2021/10/22 00:46:13;;;;;;;12.73;1.95;;;4.70;99.90;;;4.24;99.39;61408.06;5078792;28;20131;-68
2021/10/22 00:48:40;;;;;;;6.43;1.55;;;4.70;99.90;;;4.22;99.14;61406.31;5088756;28;20370;-69
2021/10/22 00:51:13;;;;;;;14.13;2.20;;;4.70;99.90;;;4.20;99.52;61404.44;5084004;28;20059;-68
2021/10/22 00:53:41;;;;;;;12.55;1.67;;;4.70;99.90;;;4.19;98.72;61404.19;5086981;28;20072;-69
2021/10/22 00:56:10;;;;;;;13.25;2.17;;;4.90;99.90;;;4.20;98.00;61404.16;5075555;28;20118;-70
2021/10/22 00:58:40;;;;;;;13.00;1.67;;;5.00;99.90;;;4.19;97.85;61403.88;5080136;28;20071;-69
2021/10/22 01:01:08;;;;;;;9.35;1.52;;;5.00;99.90;;;4.20;97.68;61404.16;5077659;28;20040;-68
2021/10/22 01:03:35;;;;;;;9.85;2.35;;;5.00;99.90;;;4.19;97.07;61403.72;5071108;28;20068;-69
2021/10/22 01:06:04;;;;;;;8.93;1.30;;;5.00;99.90;;;4.17;96.80;61401.41;5070081;28;20083;-68
2021/10/22 01:08:32;;;;;;;15.65;1.70;;;4.80;99.90;;;4.16;98.26;61399.81;5082030;28;20045;-69
2021/10/22 01:11:02;;;;;;;19.42;1.90;;;4.80;99.90;;;4.14;98.74;61398.91;5089046;28;20087;-68
2021/10/22 01:13:30;;;;;;;14.35;2.15;;;4.80;99.90;;;4.15;98.45;61399.34;5084832;28;20135;-69
2021/10/22 01:15:58;;;;;;;14.32;2.30;;;4.90;99.90;;;4.15;97.85;61399.34;5062178;28;20181;-69
2021/10/22 01:18:26;;;;;;;16.73;2.60;;;5.00;99.90;;;4.14;97.86;61398.66;5083104;28;20041;-69
2021/10/22 01:21:11;;;;;;;14.10;1.67;;;5.00;99.90;;;4.12;97.60;61396.59;5086585;28;20465;-68
2021/10/22 01:23:39;;;;;;;18.60;1.95;;;4.90;99.90;;;4.12;98.11;61395.63;5078056;28;20524;-68
2021/10/22 01:26:06;;;;;;;10.15;1.48;;;4.80;99.90;;;4.11;97.82;61395.06;5064176;28;20131;-67
2021/10/22 01:28:33;;;;;;;13.15;2.50;;;4.80;99.90;;;4.11;97.73;61394.22;5087469;28;20152;-69
2021/10/22 01:31:01;;;;;;;14.52;2.33;;;4.90;99.90;;;4.09;97.24;61392.97;5063354;28;20421;-69
2021/10/22 01:33:29;;;;;;;8.88;1.65;;;4.80;99.90;;;4.09;97.35;61392.47;5075344;28;20044;-69
2021/10/22 01:35:55;;;;;;;9.32;2.03;;;4.80;99.90;;;4.07;97.50;61390.94;5075450;28;20101;-69
2021/10/22 01:38:25;;;;;;;10.02;1.77;;;4.70;99.90;;;4.06;97.16;61389.72;5091550;28;20075;-68
2021/10/22 01:40:54;;;;;;;11.43;1.80;;;4.70;99.90;;;4.05;96.85;61388.13;5080744;28;20048;-68
2021/10/22 01:43:22;;;;;;;20.70;2.38;;;4.70;99.90;;;4.03;97.11;61386.06;5071329;28;20056;-68
2021/10/22 01:45:50;;;;;;;11.93;2.38;;;4.60;99.90;;;4.02;97.21;61385.13;5060620;28;20068;-68
2021/10/22 01:48:18;;;;;;;18.33;2.28;;;4.60;99.90;;;4.01;98.17;61383.84;5079222;28;20082;-68
2021/10/22 01:50:45;;;;;;;12.80;2.90;;;4.60;99.90;;;4.00;98.70;61383.19;5074640;28;20090;-69
2021/10/22 01:53:14;;;;;;;13.32;2.05;;;4.70;99.90;;;4.00;98.57;61383.34;5071949;28;20058;-69
2021/10/22 01:55:42;;;;;;;22.13;2.17;;;4.80;99.90;;;4.00;98.38;61383.19;5073120;28;20048;-69
2021/10/22 01:58:09;;;;;;;19.00;2.50;;;4.90;99.90;;;4.01;98.22;61383.56;5086977;28;20082;-68
2021/10/22 02:00:37;;;;;;;11.23;2.25;;;4.90;99.90;;;4.01;97.66;61384.09;5086975;28;20506;-68
2021/10/22 02:03:05;;;;;;;16.50;2.60;;;4.90;99.90;;;4.01;97.65;61384.09;5090813;28;20478;-69
2021/10/22 02:05:33;;;;;;;16.00;2.20;;;4.90;99.90;;;4.02;97.43;61384.38;5089486;28;20048;-68
2021/10/22 02:08:01;;;;;;;15.20;2.17;;;4.90;99.90;;;4.02;96.91;61384.81;5071125;28;20447;-68
2021/10/22 02:10:28;;;;;;;13.75;2.30;;;4.90;99.90;;;4.02;96.92;61385.09;5073371;28;20098;-69
2021/10/22 02:12:56;;;;;;;16.00;2.25;;;5.00;99.90;;;4.03;96.60;61386.00;5074758;28;20472;-67
2021/10/22 02:15:23;;;;;;;14.20;2.47;;;5.00;99.90;;;4.04;97.11;61386.69;5061545;28;20083;-69
2021/10/22 02:17:51;;;;;;;14.30;1.73;;;5.10;99.90;;;4.04;96.65;61387.53;5089204;28;20068;-70
2021/10/22 02:20:18;;;;;;;18.17;1.65;;;5.10;99.90;;;4.05;96.62;61387.91;5090336;28;20127;-68
2021/10/22 02:22:45;;;;;;;11.52;1.88;;;5.10;99.90;;;4.05;96.55;61388.03;5091069;28;20221;-69
2021/10/22 02:25:12;;;;;;;11.88;2.10;;;5.10;99.90;;;4.05;96.15;61388.28;5088180;28;20127;-68
2021/10/22 02:27:39;;;;;;;11.25;2.40;;;5.00;99.90;;;4.05;96.12;61387.44;5093550;28;20094;-68
2021/10/22 02:30:19;;;;;;;15.68;2.85;;;4.90;99.90;;;4.02;96.42;61384.63;5088314;28;20426;-68
2021/10/22 02:32:46;;;;;;;13.77;2.50;;;4.80;99.90;;;3.98;96.10;61380.53;5077537;28;20552;-69
2021/10/22 02:35:14;;;;;;;11.57;2.38;;;4.60;99.90;;;3.94;96.31;61375.97;5087022;28;20148;-68
2021/10/22 02:37:42;;;;;;;10.93;2.72;;;4.30;99.90;;;3.86;97.13;61368.25;5093716;28;20082;-68
2021/10/22 02:40:11;;;;;;;9.73;4.30;;;4.10;99.90;;;3.77;98.82;61358.78;5090449;28;20119;-69
2021/10/22 02:42:38;;;;;;;16.55;4.22;;;3.80;99.90;;;3.66;100.00;61347.31;5089745;28;20126;-69
2021/10/22 02:45:06;;;;;;;11.00;3.30;;;3.70;99.90;;;3.57;100.00;61338.22;5082337;28;20094;-67
2021/10/22 02:47:33;;;;;;;9.60;2.05;;;3.50;99.90;;;3.50;100.00;61330.69;5086616;28;20512;-68
2021/10/22 02:50:00;;;;;;;2.55;1.17;;;3.40;99.90;;;3.43;99.94;61323.78;5084147;28;20135;-67
2021/10/22 02:52:28;;;;;;;4.97;1.50;;;3.40;99.90;;;3.35;99.85;61315.78;5088414;28;20489;-68
2021/10/22 02:54:55;;;;;;;7.03;1.60;;;3.30;99.90;;;3.27;100.00;61307.03;5088495;28;20427;-68
2021/10/22 02:57:22;;;;;;;5.50;1.38;;;3.30;99.90;;;3.19;100.00;61299.31;5091040;28;20052;-67
2021/10/22 02:59:49;;;;;;;4.47;1.88;;;3.20;99.90;;;3.12;100.00;61292.63;5081480;28;20076;-68
2021/10/22 03:02:15;;;;;;;10.85;1.95;;;3.10;99.90;;;3.07;100.00;61286.81;5087587;28;20075;-68
2021/10/22 03:04:43;;;;;;;16.15;4.45;;;3.10;99.90;;;3.01;100.00;61282.03;5082063;28;20047;-68
2021/10/22 03:07:10;;;;;;;10.23;3.90;;;3.10;99.90;;;2.96;100.00;61276.75;5088163;28;20579;-67
2021/10/22 03:09:37;;;;;;;7.20;2.33;;;3.10;99.90;;;2.89;100.00;61269.88;5073375;28;20119;-67
2021/10/22 03:12:04;;;;;;;7.25;2.03;;;3.00;99.90;;;2.80;100.00;61260.53;5079585;28;20073;-68
2021/10/22 03:14:32;;;;;;;16.80;4.18;;;2.90;99.90;;;2.70;100.00;61250.59;5088205;28;20052;-67
2021/10/22 03:16:59;;;;;;;39.53;4.93;;;2.70;99.90;;;2.61;100.00;61241.22;5074580;28;20370;-69
2021/10/22 03:19:26;;;;;;;45.70;3.67;;;2.60;99.90;;;2.51;100.00;61231.38;5084341;28;20067;-68
2021/10/22 03:21:53;;;;;;;147.30;9.45;;;2.50;99.90;;;2.41;100.00;61221.25;5088996;28;20565;-67
2021/10/22 03:24:20;;;;;;;124.72;6.68;;;;;;;2.31;100.00;61210.41;5085285;28;20506;-68
2021/10/22 03:26:47;;;;;;;130.55;7.03;;;2.30;99.90;;;2.21;100.00;61200.44;5094968;28;20131;-67
2021/10/22 03:29:15;;;;;;;75.43;5.40;;;2.30;99.90;;;2.13;100.00;61191.63;5100491;28;20048;-68
2021/10/22 03:31:42;;;;;;;74.15;3.85;;;2.30;99.90;;;2.05;100.00;61183.53;5075973;28;20121;-68
2021/10/22 03:34:09;;;;;;;78.32;4.68;;;2.30;99.90;;;1.98;100.00;61177.13;5078463;28;20132;-67
2021/10/22 03:36:37;;;;;;;77.75;5.78;;;2.20;99.90;;;1.92;100.00;61171.22;5083849;28;20130;-68
2021/10/22 03:39:06;;;;;;;102.93;5.03;;;2.20;99.90;;;1.87;100.00;61166.38;5089884;28;20123;-68
2021/10/22 03:41:33;;;;;;;131.63;8.68;;;2.20;99.90;;;1.81;100.00;61159.91;5089100;28;20119;-67
2021/10/22 03:44:00;;;;;;;174.40;8.98;;;2.10;99.90;;;1.75;100.00;61153.56;5088240;28;20440;-66
2021/10/22 03:46:27;;;;;;;141.48;7.32;;;2.10;99.90;;;1.69;100.00;61147.50;5084572;28;20083;-68
2021/10/22 03:48:54;;;;;;;181.80;10.70;;;2.20;99.90;;;1.63;100.00;61141.84;5082378;28;20081;-67
2021/10/22 03:51:21;;;;;;;93.03;6.03;;;2.20;99.90;;;1.59;100.00;61137.97;5088516;28;20135;-67
2021/10/22 03:53:48;;;;;;;112.53;6.53;;;2.20;99.90;;;1.56;100.00;61135.16;5088671;28;20142;-68
2021/10/22 03:56:15;;;;;;;182.27;9.20;;;2.30;99.90;;;1.54;100.00;61132.59;5086004;28;20156;-68
2021/10/22 03:58:42;;;;;;;235.20;12.60;;;2.30;99.90;;;1.52;100.00;61130.34;5091910;28;20083;-68
2021/10/22 04:01:09;;;;;;;164.10;8.05;;;2.40;99.90;;;1.50;100.00;61128.59;5087984;28;20094;-68
2021/10/22 04:03:36;;;;;;;271.30;12.73;;;2.40;99.90;;;1.47;100.00;61126.03;5079309;28;20548;-68
2021/10/22 04:06:03;;;;;;;175.88;9.13;;;2.50;99.90;;;1.45;100.00;61124.13;5084209;28;20480;-68
2021/10/22 04:08:30;;;;;;;85.43;4.65;;;2.50;99.90;;;1.45;100.00;61123.72;5089524;28;20123;-68
2021/10/22 04:10:57;;;;;;;232.07;12.43;;;2.60;99.90;;;1.44;100.00;61122.75;5087592;28;20076;-69
2021/10/22 04:13:25;;;;;;;263.42;14.75;;;2.60;99.90;;;1.44;100.00;61121.94;5087978;28;20175;-67
2021/10/22 04:15:52;;;;;;;294.55;14.90;;;2.70;99.90;;;1.43;100.00;61122.00;5087100;28;20082;-67
2021/10/22 04:18:19;;;;;;;224.80;11.25;;;2.80;99.90;;;1.43;100.00;61121.59;5086874;28;20457;-69
2021/10/22 04:20:46;;;;;;;139.98;7.22;;;2.80;99.90;;;1.43;100.00;61121.53;5091116;28;20119;-67
2021/10/22 04:23:13;;;;;;;350.33;15.90;;;2.90;99.90;;;1.43;100.00;61121.97;5091840;28;20398;-69
2021/10/22 04:25:41;;;;;;;268.65;15.13;;;2.90;99.90;;;1.44;100.00;61122.41;5091097;28;20044;-68
2021/10/22 04:28:08;;;;;;;90.32;7.03;;;3.00;99.90;;;1.45;100.00;61123.97;5111379;28;20113;-67
2021/10/22 04:30:36;;;;;;;189.73;12.23;;;3.10;99.90;;;1.47;100.00;61125.72;5107355;28;20048;-68
2021/10/22 04:33:03;;;;;;;304.30;15.70;;;3.20;99.90;;;1.49;100.00;61127.72;5083667;28;20123;-69
2021/10/22 04:35:31;;;;;;;320.00;16.45;;;3.20;99.90;;;1.52;100.00;61130.81;5041972;28;20080;-68
2021/10/22 04:40:32;;;;;;;262.13;14.30;;;3.40;99.90;;;1.59;100.00;61137.22;5092206;28;20101;-68
2021/10/22 04:43:04;;;;;;;144.95;9.55;;;3.50;99.90;;;1.64;100.00;61141.78;5085154;28;20670;-68
2021/10/22 04:45:35;;;;;;;266.95;15.93;;;3.50;99.90;;;1.68;100.00;61146.41;5090502;28;20106;-69
2021/10/22 04:48:05;;;;;;;256.08;16.42;;;3.60;99.90;;;1.73;100.00;61151.06;5081018;28;20048;-67
2021/10/22 04:50:33;;;;;;;248.50;18.10;;;3.70;99.90;;;1.77;100.00;61155.81;5084772;28;20040;-69
2021/10/22 04:53:00;;;;;;;180.63;14.38;;;3.70;99.90;;;1.83;100.00;61160.91;5092788;28;20484;-67
2021/10/22 04:55:29;;;;;;;106.47;10.27;;;3.80;99.90;;;1.87;100.00;61166.06;5091231;28;20132;-67
2021/10/22 04:57:56;;;;;;;54.67;7.63;;;3.90;99.90;;;1.93;100.00;61171.31;5105816;28;20096;-68
2021/10/22 05:00:23;;;;;;;115.03;12.45;;;3.90;99.90;;;1.98;100.00;61176.84;5092877;28;20075;-68
2021/10/22 05:02:51;;;;;;;64.30;8.88;;;3.90;99.90;;;2.03;100.00;61182.28;5082561;28;20430;-69
2021/10/22 05:05:18;;;;;;;74.10;9.32;;;3.90;99.90;;;2.08;100.00;61187.19;5076999;28;20119;-69
2021/10/22 05:07:45;;;;;;;59.42;8.25;;;4.00;99.90;;;2.13;100.00;61192.53;5090161;28;20072;-67
2021/10/22 05:10:12;;;;;;;22.30;6.68;;;4.00;99.90;;;2.19;100.00;61198.19;5091662;28;20131;-66
2021/10/22 05:12:39;;;;;;;79.47;11.38;;;4.10;99.90;;;2.23;100.00;61203.22;5081863;28;20075;-67
2021/10/22 05:15:08;;;;;;;24.40;7.70;;;4.10;99.90;;;2.28;100.00;61208.19;5089488;28;20083;-67
2021/10/22 05:17:36;;;;;;;41.42;8.77;;;4.20;99.90;;;2.34;100.00;61213.94;5090305;28;20172;-68
2021/10/22 05:20:07;;;;;;;16.45;6.40;;;4.20;99.90;;;2.39;100.00;61219.13;5091333;28;20052;-67
2021/10/22 05:22:38;;;;;;;19.98;7.82;;;4.30;99.90;;;2.44;100.00;61224.56;5091726;28;20119;-67
2021/10/22 05:25:11;;;;;;;23.38;8.65;;;4.30;99.90;;;2.49;100.00;61229.47;5089623;28;20087;-67
2021/10/22 05:27:39;;;;;;;32.40;10.20;;;4.30;99.90;;;2.51;100.00;61232.28;5091899;28;20461;-67
2021/10/22 05:30:08;;;;;;;31.83;8.30;;;4.30;99.90;;;2.55;100.00;61236.19;5088790;28;20366;-67
2021/10/22 05:32:34;;;;;;;45.53;10.30;;;4.30;99.90;;;2.58;100.00;61238.59;5089496;28;20135;-68
2021/10/22 05:35:02;;;;;;;28.48;8.88;;;4.20;99.90;;;2.61;100.00;61241.41;5088557;28;20132;-67
2021/10/22 05:37:30;;;;;;;27.95;7.88;;;4.20;99.90;;;2.63;100.00;61243.59;5088024;28;20119;-67
2021/10/22 05:39:57;;;;;;;49.33;10.00;;;4.20;99.90;;;2.65;100.00;61245.50;5090741;28;20122;-67
2021/10/22 05:42:24;;;;;;;24.13;8.07;;;4.20;99.90;;;2.67;100.00;61248.47;5090771;28;20469;-67
2021/10/22 05:44:51;;;;;;;19.65;8.48;;;4.20;99.90;;;2.71;100.00;61252.00;5088299;28;20123;-68
2021/10/22 05:47:18;;;;;;;26.00;9.05;;;4.30;99.90;;;2.74;100.00;61255.09;5077157;28;20076;-68
2021/10/22 05:49:45;;;;;;;47.75;7.68;;;4.20;99.90;;;2.76;100.00;61257.50;5095870;28;20085;-69
2021/10/22 05:52:12;;;;;;;40.55;7.45;;;4.20;99.90;;;2.78;100.00;61259.53;5092165;28;20135;-67
2021/10/22 05:54:39;;;;;;;90.30;11.00;;;4.10;99.90;;;2.78;100.00;61259.16;5058428;28;20443;-69
2021/10/22 05:57:06;;;;;;;37.85;7.68;;;4.00;99.90;;;2.78;100.00;61259.84;5091363;28;21190;-67
2021/10/22 05:59:33;;;;;;;51.67;9.43;;;4.00;99.90;;;2.78;100.00;61259.25;5083619;28;20049;-68
2021/10/22 06:02:00;;;;;;;38.05;6.47;;;4.00;99.90;;;2.79;100.00;61259.94;5072103;28;20132;-67
2021/10/22 06:04:28;;;;;;;48.38;8.18;;;4.00;99.90;;;2.79;100.00;61260.38;5076020;28;20114;-67
2021/10/22 06:06:55;;;;;;;54.80;6.25;;;4.00;99.90;;;2.79;100.00;61261.06;5062440;28;20040;-68
2021/10/22 06:09:22;;;;;;;21.42;5.95;;;3.90;99.90;;;2.79;100.00;61260.69;5090576;28;20052;-68
2021/10/22 06:11:49;;;;;;;46.10;8.15;;;3.90;99.90;;;2.78;100.00;61259.91;5091538;28;20082;-67
2021/10/22 06:14:16;;;;;;;47.10;6.35;;;3.80;99.90;;;2.77;100.00;61258.97;5083528;28;20056;-68
2021/10/22 06:16:44;;;;;;;39.63;5.40;;;3.80;99.90;;;2.77;100.00;61258.72;5063197;28;20082;-69
2021/10/22 06:19:16;;;;;;;21.60;5.18;;;3.80;99.90;;;2.75;100.00;61257.66;5076766;28;20072;-68
2021/10/22 06:24:10;;;;;;;42.55;7.72;;;3.80;99.90;;;2.74;100.00;61256.47;5076897;28;20083;-68
2021/10/22 06:26:42;;;;;;;30.08;5.82;;;3.80;99.90;;;2.73;100.00;61256.25;5089179;28;20513;-67
2021/10/22 06:29:11;;;;;;;27.02;5.07;;;3.80;99.90;;;2.74;100.00;61256.31;5086560;28;20105;-67
2021/10/22 06:31:41;;;;;;;22.67;6.10;;;3.80;99.90;;;2.75;100.00;61257.13;5084592;28;20083;-68
2021/10/22 06:34:09;;;;;;;18.10;4.82;;;3.90;99.90;;;2.76;100.00;61258.34;5089177;28;20074;-69
2021/10/22 06:36:36;;;;;;;17.00;7.07;;;4.00;99.90;;;2.77;100.00;61258.97;5089983;28;20071;-69
2021/10/22 06:39:04;;;;;;;17.10;6.63;;;4.00;99.90;;;2.78;100.00;61260.06;5088279;28;20127;-67
2021/10/22 06:41:35;;;;;;;21.90;7.38;;;4.00;99.90;;;2.79;100.00;61261.25;5083119;28;20107;-67
2021/10/22 06:44:02;;;;;;;19.40;6.72;;;4.00;99.90;;;2.80;100.00;61263.09;5044339;28;20486;-68
2021/10/22 06:46:29;;;;;;;17.85;6.10;;;4.10;99.90;;;2.82;100.00;61264.84;5087422;28;20487;-67
2021/10/22 06:48:56;;;;;;;18.80;7.05;;;4.10;99.90;;;2.84;100.00;61266.41;5090639;28;20130;-67
2021/10/22 06:51:23;;;;;;;19.30;6.63;;;4.10;99.90;;;2.85;100.00;61267.78;5091237;28;20080;-67
2021/10/22 06:53:51;;;;;;;21.38;6.95;;;4.20;99.90;;;2.88;100.00;61270.22;5090034;28;20101;-68
2021/10/22 06:56:18;;;;;;;19.33;5.65;;;4.20;99.90;;;2.90;100.00;61273.09;5090495;28;20488;-67
2021/10/22 06:58:45;;;;;;;20.73;8.00;;;4.40;99.90;;;2.92;100.00;61275.13;5087641;28;20080;-67
2021/10/22 07:01:12;;;;;;;20.38;7.45;;;4.40;99.90;;;2.94;100.00;61276.84;5090784;28;20076;-66
2021/10/22 07:03:42;;;;;;;18.67;8.18;;;4.40;99.90;;;2.97;100.00;61279.69;5089744;28;20051;-67
2021/10/22 07:08:56;;;;;;;19.02;7.82;;;4.50;99.90;;;3.01;100.00;61283.91;5090399;28;20086;-67
2021/10/22 07:11:25;;;;;;;22.20;8.23;;;4.40;99.90;;;3.03;100.00;61286.28;5073185;28;20525;-67
2021/10/22 07:13:54;;;;;;;22.58;8.40;;;4.40;99.90;;;3.06;100.00;61289.25;5066880;28;20532;-67
2021/10/22 07:16:25;;;;;;;27.83;8.98;;;4.50;99.90;;;3.09;100.00;61291.69;5087130;28;20066;-69
2021/10/22 07:18:53;;;;;;;30.55;10.02;;;4.50;99.90;;;3.12;100.00;61295.41;5078904;28;20051;-68
2021/10/22 07:21:21;;;;;;;31.58;10.20;;;4.60;99.90;;;3.14;100.00;61298.41;5090892;28;20079;-67
2021/10/22 07:23:49;;;;;;;26.77;10.75;;;4.70;99.90;;;3.18;100.00;61301.72;5088800;28;20052;-68
2021/10/22 07:26:19;;;;;;;19.70;8.88;;;4.80;99.90;;;3.21;99.84;61304.28;5087289;28;20046;-68
2021/10/22 07:28:48;;;;;;;22.15;8.82;;;4.90;99.90;;;3.24;99.57;61307.53;5085908;28;20143;-67
2021/10/22 07:31:15;;;;;;;26.77;9.65;;;4.90;99.90;;;3.25;99.66;61308.59;5089236;28;20071;-67
2021/10/22 07:33:43;;;;;;;36.47;11.45;;;4.90;99.90;;;3.25;100.00;61308.84;5084329;28;20093;-67
2021/10/22 07:36:13;;;;;;;26.70;9.90;;;5.00;99.90;;;3.29;100.00;61312.06;5072014;28;20056;-68
2021/10/22 07:38:43;;;;;;;25.08;10.52;;;5.00;99.90;;;3.32;98.79;61315.97;5088467;28;20182;-68
2021/10/22 07:41:14;;;;;;;22.33;9.38;;;5.00;99.90;;;3.36;99.48;61319.91;5079260;28;20044;-68
2021/10/22 07:43:42;;;;;;;29.50;10.88;;;5.10;99.90;;;3.40;98.95;61324.25;5088271;28;20076;-67
2021/10/22 07:46:08;;;;;;;28.10;10.50;;;5.10;99.90;;;3.44;98.58;61327.81;5088718;28;20167;-68
2021/10/22 07:48:36;;;;;;;28.48;10.25;;;5.30;99.90;;;3.49;98.22;61333.16;5084710;28;20390;-69
2021/10/22 07:51:03;;;;;;;29.58;11.57;;;5.50;99.90;;;3.53;97.29;61337.59;5092074;28;20346;-67
2021/10/22 07:53:30;;;;;;;19.50;9.27;;;5.50;99.90;;;3.60;95.77;61343.81;5099114;28;20478;-68
2021/10/22 07:56:02;;;;;;;26.50;9.95;;;5.60;99.90;;;3.66;96.01;61350.50;5092755;28;20044;-67
2021/10/22 07:58:29;;;;;;;22.42;10.75;;;5.80;99.90;;;3.73;93.52;61358.16;5067859;28;20131;-68
2021/10/22 08:00:57;;;;;;;31.85;10.77;;;5.80;99.90;;;3.81;92.83;61366.00;5088477;28;20071;-68
2021/10/22 08:03:25;;;;;;;24.08;10.50;;;5.90;99.90;;;3.91;91.87;61375.91;5085277;28;20499;-69
2021/10/22 08:05:52;;;;;;;23.25;10.50;;;6.20;99.90;;;4.01;91.04;61385.84;5085882;28;20474;-69
2021/10/22 08:08:20;;;;;;;25.08;10.57;;;6.50;99.90;;;4.10;88.84;61394.50;5088040;28;20052;-67
2021/10/22 08:10:47;;;;;;;26.00;10.13;;;6.50;99.90;;;4.15;90.57;61399.94;5088913;28;20413;-68
2021/10/22 08:13:14;;;;;;;26.85;9.25;;;6.40;99.90;;;4.23;89.26;61408.09;5088126;28;20071;-68
2021/10/22 08:15:46;;;;;;;22.73;9.13;;;6.20;99.90;;;4.27;90.66;61412.41;5077450;28;20481;-68
2021/10/22 08:18:15;;;;;;;23.98;9.40;;;6.10;99.90;;;4.32;90.97;61417.56;5068837;28;20049;-68
2021/10/22 08:20:58;;;;;;;31.58;10.27;;;6.00;99.90;;;4.34;92.60;61419.75;5087248;28;20044;-69
2021/10/22 08:23:25;;;;;;;23.30;9.02;;;6.10;99.90;;;4.37;91.54;61423.09;5076316;28;20531;-69
2021/10/22 08:25:53;;;;;;;26.95;10.10;;;6.00;99.90;;;4.41;92.86;61426.91;5076744;28;20051;-69
2021/10/22 08:28:20;;;;;;;25.40;9.95;;;6.00;99.90;;;4.44;93.31;61430.13;5083099;28;20072;-68
2021/10/22 08:30:55;;;;;;;25.25;9.20;;;6.00;99.90;;;4.46;94.00;61432.09;5086138;28;20047;-68
2021/10/22 08:33:27;;;;;;;23.83;9.70;;;5.90;99.90;;;4.45;95.22;61430.81;5089333;28;20412;-68
2021/10/22 08:35:55;;;;;;;22.30;10.18;;;5.90;99.90;;;4.44;95.83;61429.91;5087089;28;20090;-67
2021/10/22 08:38:23;;;;;;;24.10;8.35;;;5.90;99.90;;;4.43;95.34;61429.09;5090197;28;20044;-68
2021/10/22 08:40:54;;;;;;;24.85;9.43;;;5.90;99.90;;;4.43;96.32;61428.81;5083274;28;20043;-67
2021/10/22 08:43:25;;;;;;;23.13;9.18;;;5.90;99.90;;;4.44;96.98;61429.59;5079134;28;20185;-68
2021/10/22 08:46:02;;;;;;;21.50;9.25;;;5.90;99.90;;;4.44;96.49;61429.53;5067607;28;20126;-69
2021/10/22 08:48:31;;;;;;;26.65;9.30;;;5.80;99.90;;;4.43;96.25;61429.16;5085866;28;20066;-69
2021/10/22 08:51:00;;;;;;;26.88;7.65;;;5.70;99.90;;;4.41;96.62;61426.81;5088444;28;20123;-68
2021/10/22 08:53:28;;;;;;;22.52;7.00;;;5.70;99.90;;;4.40;96.05;61425.59;5088356;28;20355;-69
2021/10/22 08:55:58;;;;;;;26.83;8.50;;;5.70;99.90;;;4.40;96.84;61425.03;5084845;28;20501;-68
2021/10/22 08:58:26;;;;;;;19.15;5.68;;;5.70;99.90;;;4.39;94.31;61424.22;5084667;28;20044;-67
2021/10/22 09:00:53;;;;;;;22.48;6.50;;;5.60;99.90;;;4.39;95.67;61424.31;5085269;28;20048;-69
2021/10/22 09:03:20;;;;;;;19.33;7.43;;;5.70;99.90;;;4.39;96.55;61423.63;5071736;28;20478;-69
2021/10/22 09:06:12;;;;;;;17.15;5.15;;;5.70;99.90;;;4.39;94.08;61424.00;5082280;28;20123;-67
2021/10/22 09:08:45;;;;;;;15.50;5.30;;;5.70;99.90;;;4.41;93.42;61425.31;5091282;28;20123;-68
2021/10/22 09:11:19;;;;;;;15.30;4.90;;;5.70;99.90;;;4.43;92.53;61428.38;5089468;28;20051;-68
2021/10/22 09:13:59;;;;;;;18.05;4.90;;;5.80;99.90;;;4.46;91.95;61431.25;5088081;28;20764;-68
2021/10/22 09:16:26;;;;;;;17.58;5.18;;;5.90;99.90;;;4.48;92.22;61433.63;5085215;28;20101;-67
2021/10/22 09:18:54;;;;;;;14.52;3.65;;;6.00;99.90;;;4.52;89.97;61437.28;5092978;28;20071;-68
2021/10/22 09:21:30;;;;;;;14.85;3.80;;;6.00;99.90;;;4.56;90.38;61441.47;5076226;28;20118;-68
2021/10/22 09:24:19;;;;;;;16.73;4.45;;;6.10;99.90;;;4.60;90.47;61445.53;5088584;28;20109;-68
2021/10/22 09:26:57;;;;;;;15.10;4.03;;;6.20;99.90;;;4.64;90.02;61449.75;5088326;28;20078;-68
2021/10/22 09:29:27;;;;;;;16.98;4.05;;;6.20;99.90;;;4.67;88.63;61452.72;5088863;28;20087;-68
2021/10/22 09:31:58;;;;;;;17.85;4.07;;;6.20;99.90;;;4.69;90.27;61455.34;5087883;28;20094;-69
2021/10/22 09:34:36;;;;;;;19.25;3.88;;;6.30;99.90;;;4.72;90.46;61458.22;5079340;28;20138;-68
2021/10/22 09:37:10;;;;;;;17.63;3.53;;;6.40;99.90;;;4.75;89.66;61460.91;5066945;28;20044;-68
2021/10/22 09:39:39;;;;;;;7.60;2.80;;;6.40;99.90;;;4.80;89.41;61466.34;5089134;28;20163;-67
2021/10/22 09:42:15;;;;;;;11.10;3.30;;;6.40;99.90;;;4.84;88.76;61470.25;5083882;28;20079;-68
2021/10/22 09:44:46;;;;;;;12.02;2.40;;;6.50;99.90;;;4.87;88.36;61473.78;5063186;28;20512;-69
2021/10/22 09:47:19;;;;;;;11.70;3.22;;;6.60;99.90;;;4.91;87.16;61477.88;5055484;28;20041;-69
2021/10/22 09:49:52;;;;;;;15.15;4.00;;;6.60;99.90;;;4.95;88.80;61482.50;5072288;28;20178;-68
2021/10/22 09:52:27;;;;;;;14.15;3.72;;;6.70;99.90;;;5.00;88.36;61487.06;5060273;28;20040;-67
2021/10/22 09:55:19;;;;;;;12.13;3.30;;;6.80;99.90;;;5.06;88.00;61493.16;5080373;28;20541;-68
2021/10/22 09:58:04;;;;;;;14.52;2.88;;;6.90;99.90;;;5.10;87.75;61498.16;5083707;28;20047;-68
2021/10/22 10:00:35;;;;;;;14.57;3.55;;;7.10;99.90;;;5.16;87.89;61503.50;5069014;28;20074;-68
2021/10/22 10:03:04;;;;;;;17.15;3.25;;;7.10;99.90;;;5.22;85.97;61509.44;5081053;28;20044;-68
2021/10/22 10:05:32;;;;;;;14.65;3.70;;;7.10;99.90;;;5.28;86.03;61515.94;5068151;28;20113;-68
2021/10/22 10:08:00;;;;;;;15.43;3.25;;;7.10;99.90;;;5.34;85.72;61522.19;5084283;28;20462;-67
2021/10/22 10:10:28;;;;;;;13.88;2.92;;;7.20;99.90;;;5.39;85.48;61527.19;5083707;28;20105;-68
2021/10/22 10:12:56;;;;;;;12.07;2.83;;;7.30;99.90;;;5.44;83.68;61532.75;5078447;28;20117;-69
2021/10/22 10:15:23;;;;;;;11.45;2.90;;;7.30;99.90;;;5.48;84.49;61536.84;5077322;28;20044;-67
2021/10/22 10:17:51;;;;;;;10.27;3.03;;;7.40;99.90;;;5.54;84.50;61543.53;5075227;28;20513;-68
2021/10/22 10:20:25;;;;;;;14.43;3.03;;;7.50;99.90;;;5.58;81.88;61547.22;5060311;28;20166;-68
2021/10/22 10:22:54;;;;;;;14.65;3.38;;;7.50;99.90;;;5.63;83.21;61551.75;5068735;28;20127;-65
2021/10/22 10:25:23;;;;;;;10.00;2.78;;;7.50;99.90;;;5.65;81.62;61554.41;5058415;28;20051;-66
2021/10/22 10:27:52;;;;;;;10.52;2.72;;;7.50;99.90;;;5.70;83.14;61558.78;5061803;28;20514;-64
2021/10/22 10:30:39;;;;;;;13.27;3.38;;;7.60;99.90;;;5.73;83.20;61562.06;5051628;28;20076;-67
2021/10/22 10:33:10;;;;;;;14.75;3.50;;;7.50;99.90;;;5.76;82.85;61566.00;5083217;28;20075;-66
2021/10/22 10:35:44;;;;;;;11.88;3.47;;;7.50;99.90;;;5.81;82.32;61570.81;5070948;28;20580;-66
2021/10/22 10:38:13;;;;;;;13.15;3.13;;;7.60;99.90;;;5.85;82.99;61575.16;5079587;28;20078;-66